Time;durP1;ratioP1;P1;durP2;ratioP2;P2;SDS_P1;SDS_P2;PMS_P1;PMS_P2;Temp;Humidity;BMP_temperature;BMP_pressure;BME280_temperature;BME280_humidity;BME280_pressure;Samples;Min_cycle;Max_cycle;Signal;HPM_P1;HPM_P2
2023/10/30 00:00:47;;;;;;;3.78;0.55;;;;;;;10.54;89.72;99738.84;7403177;19;19942;-82
2023/10/30 00:03:19;;;;;;;4.30;1.40;;;;;;;10.49;89.95;99744.84;7400000;19;19931;-83
2023/10/30 00:05:48;;;;;;;4.18;0.60;;;;;;;10.46;89.96;99751.47;7401621;19;19922;-83
2023/10/30 00:08:17;;;;;;;2.10;0.45;;;;;;;10.39;90.12;99760.56;7399855;19;19946;-83
2023/10/30 00:10:45;;;;;;;2.47;0.50;;;;;;;10.36;90.72;99766.34;7399994;19;19947;-83
2023/10/30 00:13:14;;;;;;;3.05;0.65;;;;;;;10.31;90.77;99766.94;7398789;19;19922;-82
2023/10/30 00:15:43;;;;;;;2.22;0.50;;;;;;;10.25;91.23;99764.25;7401577;19;19923;-83
2023/10/30 00:18:11;;;;;;;5.75;0.93;;;;;;;10.18;91.69;99760.72;7398115;19;19956;-82
2023/10/30 00:20:42;;;;;;;0.90;0.43;;;;;;;10.14;91.91;99764.81;7398617;19;19922;-83
2023/10/30 00:23:11;;;;;;;1.50;0.32;;;;;;;10.11;91.85;99771.41;7400522;19;19946;-83
2023/10/30 00:25:39;;;;;;;1.30;0.40;;;;;;;10.09;92.05;99778.88;7399229;19;20451;-83
2023/10/30 00:28:08;;;;;;;3.97;0.70;;;;;;;10.05;92.20;99772.22;7398994;19;19926;-83
2023/10/30 00:30:36;;;;;;;4.45;0.80;;;;;;;10.01;92.31;99787.09;7400595;19;19926;-83
2023/10/30 00:33:05;;;;;;;3.80;0.60;;;;;;;9.99;92.67;99775.72;7398016;19;19926;-83
2023/10/30 00:35:34;;;;;;;5.82;0.68;;;;;;;9.96;92.58;99787.72;7397525;19;19933;-82
2023/10/30 00:38:05;;;;;;;3.63;0.77;;;;;;;9.93;92.42;99795.31;7395118;19;19918;-83
2023/10/30 00:40:33;;;;;;;1.33;0.70;;;;;;;9.91;92.35;99792.03;7398343;19;19919;-82
2023/10/30 00:43:02;;;;;;;3.70;0.77;;;;;;;9.89;92.63;99797.59;7397489;19;19946;-82
2023/10/30 00:45:30;;;;;;;5.38;0.68;;;;;;;9.87;92.66;99799.66;7399112;19;19942;-83
2023/10/30 00:47:59;;;;;;;4.93;0.85;;;;;;;9.85;92.72;99796.31;7398106;19;19914;-83
2023/10/30 00:50:28;;;;;;;1.55;0.35;;;;;;;9.84;92.75;99802.72;7398402;19;19921;-83
2023/10/30 00:52:57;;;;;;;1.65;0.50;;;;;;;9.83;92.64;99802.94;7398289;19;19923;-83
2023/10/30 00:55:28;;;;;;;5.47;0.95;;;;;;;9.80;92.74;99817.59;7397380;19;19925;-82
2023/10/30 00:57:56;;;;;;;2.90;0.73;;;;;;;9.77;92.81;99809.09;7394665;19;19926;-83
2023/10/30 01:00:25;;;;;;;5.55;0.63;;;;;;;9.75;93.06;99800.41;7391712;19;19926;-83
2023/10/30 01:02:54;;;;;;;2.47;0.65;;;;;;;9.73;93.01;99814.06;7398086;19;19919;-84
2023/10/30 01:05:22;;;;;;;3.80;0.65;;;;;;;9.72;93.33;99820.44;7396441;19;19927;-82
2023/10/30 01:07:51;;;;;;;4.78;0.82;;;;;;;9.70;93.13;99817.16;7398242;19;19918;-82
2023/10/30 01:10:19;;;;;;;4.38;0.80;;;;;;;9.67;93.14;99805.94;7395026;19;19930;-83
2023/10/30 01:12:51;;;;;;;7.03;1.25;;;;;;;9.64;93.49;99823.28;7398013;19;19954;-82
2023/10/30 01:15:20;;;;;;;4.47;1.02;;;;;;;9.62;93.39;99813.78;7397150;19;19946;-83
2023/10/30 01:17:48;;;;;;;6.25;0.82;;;;;;;9.62;93.46;99813.78;7395379;19;19934;-83
2023/10/30 01:20:17;;;;;;;2.00;0.80;;;;;;;9.61;93.48;99825.56;7391295;19;19929;-83
2023/10/30 01:22:43;;;;;;;2.38;0.70;;;;;;;9.61;93.63;99825.56;7397617;19;20451;-83
2023/10/30 01:25:11;;;;;;;2.28;0.70;;;;;;;9.60;93.80;99831.94;7400331;19;19951;-83
2023/10/30 01:27:40;;;;;;;8.38;1.33;;;;;;;9.57;93.26;99833.19;7403489;19;19930;-83
2023/10/30 01:30:13;;;;;;;4.57;0.73;;;;;;;9.55;93.87;99835.22;7401304;19;19954;-83
2023/10/30 01:32:42;;;;;;;5.45;0.60;;;;;;;9.52;93.73;99827.56;7403661;19;20288;-82
2023/10/30 01:35:10;;;;;;;2.95;0.60;;;;;;;9.52;93.94;99827.56;7400522;19;19958;-82
2023/10/30 01:37:39;;;;;;;6.28;1.00;;;;;;;9.52;93.75;99838.31;7402253;19;20326;-82
2023/10/30 01:40:10;;;;;;;4.25;0.85;;;;;;;9.52;93.43;99832.94;7402779;19;19922;-83
2023/10/30 01:42:38;;;;;;;1.98;0.52;;;;;;;9.51;93.70;99832.09;7401662;19;19918;-82
2023/10/30 01:45:08;;;;;;;4.65;0.68;;;;;;;9.51;93.43;99831.25;7403122;19;20351;-83
2023/10/30 01:47:39;;;;;;;4.18;0.70;;;;;;;9.53;93.69;99831.91;7399375;19;19914;-83
2023/10/30 01:50:14;;;;;;;2.90;0.93;;;;;;;9.52;93.61;99835.63;7403035;19;19929;-84
2023/10/30 01:52:45;;;;;;;5.32;0.85;;;;;;;9.53;93.70;99826.53;7401879;19;19950;-84
2023/10/30 01:55:15;;;;;;;3.85;0.63;;;;;;;9.53;93.75;99831.91;7404945;19;19914;-84
2023/10/30 01:57:44;;;;;;;3.88;1.65;;;;;;;9.50;93.81;99833.13;7404629;19;19946;-84
2023/10/30 02:00:15;;;;;;;2.85;0.90;;;;;;;9.51;93.71;99832.09;7409641;19;19937;-83
2023/10/30 02:02:46;;;;;;;1.85;0.70;;;;;;;9.50;93.94;99833.13;7407729;19;19923;-84
2023/10/30 02:05:14;;;;;;;4.80;0.82;;;;;;;9.50;93.87;99841.19;7401120;19;19963;-84
2023/10/30 02:07:43;;;;;;;1.52;0.85;;;;;;;9.51;94.04;99858.16;7401340;19;19930;-83
2023/10/30 02:10:12;;;;;;;7.03;0.88;;;;;;;9.52;94.00;99849.06;7401522;19;19923;-84
2023/10/30 02:12:44;;;;;;;3.42;0.90;;;;;;;9.50;94.07;99848.41;7403819;19;19926;-84
2023/10/30 02:15:12;;;;;;;8.88;1.80;;;;;;;9.50;94.07;99857.31;7403044;19;19953;-84
2023/10/30 02:17:41;;;;;;;2.10;0.75;;;;;;;9.49;94.23;99852.16;7401396;19;19926;-83
2023/10/30 02:20:13;;;;;;;4.47;0.98;;;;;;;9.51;94.33;99855.47;7399418;19;19914;-84
2023/10/30 02:22:42;;;;;;;4.38;0.88;;;;;;;9.50;94.04;99864.53;7400540;19;19953;-84
2023/10/30 02:25:11;;;;;;;4.35;0.90;;;;;;;9.50;94.12;99857.31;7403412;19;19937;-84
2023/10/30 02:27:42;;;;;;;2.65;0.98;;;;;;;9.54;94.01;99860.44;7403004;19;19923;-84
2023/10/30 02:30:13;;;;;;;3.20;0.90;;;;;;;9.54;93.83;99866.66;7403886;19;19946;-84
2023/10/30 02:32:44;;;;;;;8.15;1.27;;;;;;;9.56;93.85;99866.47;7401929;19;19922;-84
2023/10/30 02:35:15;;;;;;;2.17;0.82;;;;;;;9.56;93.95;99869.16;7401478;19;19922;-84
2023/10/30 02:37:44;;;;;;;4.32;0.80;;;;;;;9.56;93.97;99869.16;7401140;19;19926;-83
2023/10/30 02:40:13;;;;;;;3.88;0.88;;;;;;;9.55;94.18;99873.69;7403988;19;20682;-84
2023/10/30 02:42:45;;;;;;;5.00;0.98;;;;;;;9.53;94.48;99864.97;7397454;19;19923;-84
2023/10/30 02:45:13;;;;;;;6.50;1.23;;;;;;;9.52;94.36;99868.72;7403644;19;19942;-83
2023/10/30 02:47:42;;;;;;;4.10;2.40;;;;;;;9.51;94.52;99858.16;7402249;19;19918;-83
2023/10/30 02:50:12;;;;;;;6.35;1.08;;;;;;;9.50;94.48;99873.44;7401791;19;19923;-84
2023/10/30 02:52:41;;;;;;;5.93;0.93;;;;;;;9.49;94.70;99873.66;7398241;19;19919;-84
2023/10/30 02:55:11;;;;;;;6.38;0.95;;;;;;;9.48;94.70;99877.38;7396238;19;19982;-84
2023/10/30 02:57:40;;;;;;;5.05;1.73;;;;;;;9.46;94.80;99866.81;7402410;19;19994;-84
2023/10/30 03:00:12;;;;;;;5.55;0.90;;;;;;;9.47;95.01;99873.00;7397320;19;19922;-84
2023/10/30 03:02:41;;;;;;;3.05;0.90;;;;;;;9.47;95.13;99873.00;7400715;19;20442;-84
2023/10/30 03:05:10;;;;;;;5.57;0.95;;;;;;;9.47;94.88;99876.53;7402296;19;19929;-84
2023/10/30 03:07:39;;;;;;;4.53;1.02;;;;;;;9.45;95.08;99881.25;7393613;19;20284;-81
2023/10/30 03:10:09;;;;;;;4.57;1.20;;;;;;;9.45;95.14;99883.13;7400450;19;19914;-81
2023/10/30 03:12:37;;;;;;;5.30;1.15;;;;;;;9.45;94.95;99880.41;7399777;19;20573;-81
2023/10/30 03:15:07;;;;;;;4.55;1.00;;;;;;;9.45;95.15;99888.50;7401025;19;19945;-81
2023/10/30 03:17:38;;;;;;;8.60;1.00;;;;;;;9.44;95.31;99889.53;7399003;19;20375;-84
2023/10/30 03:20:09;;;;;;;3.20;0.90;;;;;;;9.43;95.20;99887.88;7396387;19;20460;-83
2023/10/30 03:22:37;;;;;;;4.45;0.70;;;;;;;9.41;95.58;99892.59;7401128;19;19928;-84
2023/10/30 03:25:07;;;;;;;4.15;1.02;;;;;;;9.41;95.36;99901.50;7401563;19;19966;-84
2023/10/30 03:27:35;;;;;;;4.00;1.55;;;;;;;9.43;95.48;99904.84;7402163;19;19914;-84
2023/10/30 03:30:04;;;;;;;6.07;1.20;;;;;;;9.42;95.67;99889.72;7399730;19;19946;-84
2023/10/30 03:32:33;;;;;;;7.78;0.90;;;;;;;9.42;95.42;99897.78;7402648;19;20367;-81
2023/10/30 03:35:04;;;;;;;6.50;0.90;;;;;;;9.43;95.55;99896.75;7400496;19;19926;-81
2023/10/30 03:37:32;;;;;;;7.70;1.40;;;;;;;9.47;95.46;99897.22;7399383;19;19914;-81
2023/10/30 03:40:01;;;;;;;5.28;1.20;;;;;;;9.50;95.51;99903.03;7397052;19;20375;-84
2023/10/30 03:42:29;;;;;;;8.27;1.35;;;;;;;9.52;95.53;99906.38;7398839;19;19922;-83
2023/10/30 03:44:58;;;;;;;5.78;1.10;;;;;;;9.52;95.39;99906.38;7400722;19;20284;-83
2023/10/30 03:47:27;;;;;;;9.25;1.33;;;;;;;9.52;95.46;99900.97;7399300;19;19918;-84
2023/10/30 03:49:55;;;;;;;7.80;1.17;;;;;;;9.53;95.77;99907.19;7399535;19;19926;-84
2023/10/30 03:52:26;;;;;;;7.20;1.02;;;;;;;9.53;95.71;99902.63;7395598;19;19914;-83
2023/10/30 03:54:59;;;;;;;9.52;0.82;;;;;;;9.54;95.71;99912.38;7399874;19;19946;-83
2023/10/30 03:57:28;;;;;;;3.55;0.70;;;;;;;9.53;95.49;99899.94;7398984;19;19950;-84
2023/10/30 03:59:57;;;;;;;5.72;1.20;;;;;;;9.55;95.59;99905.97;7399860;19;19926;-84
2023/10/30 04:02:25;;;;;;;5.13;1.77;;;;;;;9.56;95.63;99907.63;7398068;19;19923;-84
2023/10/30 04:04:54;;;;;;;3.33;1.27;;;;;;;9.57;95.39;99913.84;7399980;19;19919;-84
2023/10/30 04:07:24;;;;;;;5.10;1.42;;;;;;;9.56;95.51;99912.19;7401381;19;19982;-84
2023/10/30 04:09:55;;;;;;;2.92;0.80;;;;;;;9.54;95.56;99908.84;7399498;19;19925;-84
2023/10/30 04:12:23;;;;;;;6.97;0.95;;;;;;;9.55;95.46;99915.88;7405786;19;19918;-83
2023/10/30 04:14:52;;;;;;;7.07;1.80;;;;;;;9.55;95.73;99913.19;7406295;19;20376;-84
2023/10/30 04:17:21;;;;;;;6.45;2.10;;;;;;;9.57;95.55;99911.16;7397053;19;19918;-84
2023/10/30 04:19:49;;;;;;;4.47;1.00;;;;;;;9.58;95.64;99919.00;7401002;19;19956;-84
2023/10/30 04:22:18;;;;;;;5.93;1.10;;;;;;;9.59;95.34;99919.84;7396730;19;19923;-84
2023/10/30 04:24:46;;;;;;;6.22;1.48;;;;;;;9.61;95.40;99920.50;7401601;19;19946;-83
2023/10/30 04:27:17;;;;;;;5.90;0.98;;;;;;;9.61;95.54;99922.34;7398974;19;19946;-84
2023/10/30 04:29:46;;;;;;;4.88;0.80;;;;;;;9.64;95.38;99924.66;7398833;19;19942;-84
2023/10/30 04:32:15;;;;;;;4.30;0.80;;;;;;;9.65;95.19;99929.00;7398115;19;19918;-84
2023/10/30 04:34:43;;;;;;;8.38;1.10;;;;;;;9.67;95.27;99941.22;7396142;19;20400;-84
2023/10/30 04:37:13;;;;;;;6.80;0.77;;;;;;;9.66;95.14;99931.50;7398391;19;19923;-84
2023/10/30 04:39:42;;;;;;;4.35;0.68;;;;;;;9.65;95.42;99937.91;7398785;19;19919;-83
2023/10/30 04:42:10;;;;;;;6.38;1.00;;;;;;;9.63;95.35;99944.50;7398426;19;19958;-84
2023/10/30 04:44:41;;;;;;;6.80;1.40;;;;;;;9.62;96.00;99945.53;7397119;19;20386;-83
2023/10/30 04:47:10;;;;;;;11.52;1.23;;;;;;;9.63;95.81;99949.88;7397555;19;19935;-84
2023/10/30 04:49:39;;;;;;;2.83;0.80;;;;;;;9.62;95.56;99948.22;7399612;19;19938;-83
2023/10/30 04:52:07;;;;;;;6.22;1.10;;;;;;;9.62;95.88;99950.91;7398305;19;19922;-84
2023/10/30 04:54:36;;;;;;;7.40;1.23;;;;;;;9.63;95.76;99953.38;7396142;19;19926;-84
2023/10/30 04:57:05;;;;;;;5.38;0.98;;;;;;;9.61;95.95;99950.09;7396508;19;19945;-84
2023/10/30 04:59:34;;;;;;;7.70;1.38;;;;;;;9.61;95.73;99946.56;7399959;19;19921;-84
2023/10/30 05:02:06;;;;;;;7.75;1.50;;;;;;;9.60;96.17;99934.13;7402138;19;20018;-84
2023/10/30 05:04:34;;;;;;;5.07;0.90;;;;;;;9.56;95.86;99942.59;7406155;19;19949;-84
2023/10/30 05:07:03;;;;;;;3.53;0.90;;;;;;;9.57;96.13;99938.06;7401838;19;21390;-84
2023/10/30 05:09:31;;;;;;;7.80;1.10;;;;;;;9.54;96.10;99927.66;7403913;19;19946;-82
2023/10/30 05:12:00;;;;;;;4.95;1.10;;;;;;;9.52;96.20;99932.41;7403538;19;19922;-82
2023/10/30 05:14:29;;;;;;;5.43;0.90;;;;;;;9.51;96.25;99917.31;7403713;19;19944;-84
2023/10/30 05:16:58;;;;;;;4.70;1.27;;;;;;;9.48;96.52;99918.53;7399779;19;19922;-84
2023/10/30 05:19:29;;;;;;;3.20;1.38;;;;;;;9.46;96.65;99923.25;7403111;19;20201;-84
2023/10/30 05:21:57;;;;;;;5.70;1.25;;;;;;;9.43;96.60;99923.66;7405947;19;19922;-84
2023/10/30 05:24:26;;;;;;;7.90;1.00;;;;;;;9.41;96.80;99916.78;7402758;19;19926;-84
2023/10/30 05:26:55;;;;;;;2.67;1.00;;;;;;;9.39;96.88;99924.22;7402101;19;19939;-84
2023/10/30 05:29:23;;;;;;;4.63;1.58;;;;;;;9.39;97.04;99932.28;7404278;19;19954;-84
2023/10/30 05:31:52;;;;;;;7.82;1.08;;;;;;;9.37;97.16;99919.03;7403569;19;19922;-84
2023/10/30 05:34:21;;;;;;;5.47;0.90;;;;;;;9.36;97.05;99920.03;7401128;19;19922;-84
2023/10/30 05:36:52;;;;;;;5.18;1.35;;;;;;;9.35;97.44;99917.56;7401050;19;19922;-83
2023/10/30 05:39:20;;;;;;;4.78;1.27;;;;;;;9.34;97.62;99919.44;7401991;19;19961;-84
2023/10/30 05:41:49;;;;;;;13.40;2.17;;;;;;;9.33;97.39;99915.06;7399067;19;20340;-84
2023/10/30 05:44:17;;;;;;;4.10;0.73;;;;;;;9.33;97.65;99911.53;7397972;19;19918;-84
2023/10/30 05:46:46;;;;;;;3.88;1.20;;;;;;;9.32;97.72;99918.78;7402730;19;19914;-84
2023/10/30 05:49:15;;;;;;;5.38;1.02;;;;;;;9.31;97.86;99925.19;7402910;19;19935;-84
2023/10/30 05:51:43;;;;;;;5.95;1.02;;;;;;;9.32;97.56;99931.41;7401476;19;19938;-84
2023/10/30 05:54:14;;;;;;;8.60;1.23;;;;;;;9.31;97.62;99940.47;7402733;19;19922;-84
2023/10/30 05:56:43;;;;;;;8.55;1.30;;;;;;;9.30;97.84;99949.56;7401090;19;19930;-84
2023/10/30 05:59:11;;;;;;;8.02;1.15;;;;;;;9.28;97.95;99948.91;7400561;19;19926;-84
2023/10/30 06:01:41;;;;;;;5.55;1.13;;;;;;;9.27;98.07;99952.63;7402887;19;19918;-84
2023/10/30 06:04:09;;;;;;;5.93;1.20;;;;;;;9.25;98.29;99962.72;7402552;19;19942;-84
2023/10/30 06:06:38;;;;;;;8.18;1.15;;;;;;;9.25;98.23;99960.03;7403407;19;19977;-84
2023/10/30 06:09:08;;;;;;;7.55;1.02;;;;;;;9.22;98.42;99955.06;7403342;19;19933;-83
2023/10/30 06:11:39;;;;;;;5.13;1.08;;;;;;;9.22;98.17;99957.75;7403075;19;19918;-81
2023/10/30 06:14:07;;;;;;;6.47;1.10;;;;;;;9.20;98.49;99965.16;7401916;19;19922;-81
2023/10/30 06:16:36;;;;;;;5.82;0.93;;;;;;;9.18;98.97;99967.22;7404254;19;19922;-84
2023/10/30 06:19:05;;;;;;;9.00;1.50;;;;;;;9.18;98.83;99981.50;7401832;19;19946;-84
2023/10/30 06:21:35;;;;;;;7.55;1.25;;;;;;;9.17;98.92;99981.66;7399924;19;19928;-84
2023/10/30 06:24:03;;;;;;;4.43;0.93;;;;;;;9.17;99.01;99981.66;7401714;19;20477;-84
2023/10/30 06:26:32;;;;;;;8.95;1.50;;;;;;;9.16;99.40;99978.16;7403479;19;19927;-84
2023/10/30 06:29:03;;;;;;;7.07;0.85;;;;;;;9.17;99.15;99984.34;7406626;19;19919;-84
2023/10/30 06:31:32;;;;;;;2.42;0.95;;;;;;;9.16;99.31;99985.38;7409699;19;20306;-84
2023/10/30 06:34:01;;;;;;;8.75;0.98;;;;;;;9.16;99.78;99978.16;7409767;19;19933;-84
2023/10/30 06:36:30;;;;;;;6.65;0.90;;;;;;;9.17;99.46;99979.81;7407084;19;19943;-83
2023/10/30 06:39:01;;;;;;;6.70;1.13;;;;;;;9.20;99.38;100000.94;7407322;19;19942;-81
2023/10/30 06:41:29;;;;;;;4.20;1.00;;;;;;;9.22;99.43;100006.13;7405696;19;19957;-81
2023/10/30 06:43:58;;;;;;;5.93;1.08;;;;;;;9.24;99.44;99993.31;7408846;19;19938;-80
2023/10/30 06:46:29;;;;;;;8.48;1.30;;;;;;;9.25;99.51;99997.66;7407211;19;19914;-81
2023/10/30 06:48:57;;;;;;;6.05;1.50;;;;;;;9.27;99.41;100001.00;7406425;19;19922;-84
2023/10/30 06:51:26;;;;;;;5.05;1.10;;;;;;;9.29;99.44;100001.63;7405268;19;19918;-81
2023/10/30 06:53:54;;;;;;;5.63;1.05;;;;;;;9.30;99.48;99993.41;7408535;19;20469;-83
2023/10/30 06:56:23;;;;;;;5.03;1.17;;;;;;;9.33;99.46;99998.38;7402880;19;19941;-83
2023/10/30 06:58:51;;;;;;;4.32;1.13;;;;;;;9.36;99.19;100003.38;7399705;19;19926;-82
2023/10/30 07:01:20;;;;;;;3.92;0.75;;;;;;;9.41;99.51;100010.88;7397728;19;19946;-84
2023/10/30 07:03:52;;;;;;;4.13;1.10;;;;;;;9.45;99.43;100004.91;7398914;19;19993;-84
2023/10/30 07:06:21;;;;;;;4.93;1.00;;;;;;;9.50;98.97;100007.03;7399341;19;19923;-84
2023/10/30 07:08:50;;;;;;;5.07;1.27;;;;;;;9.55;98.97;100004.63;7397449;19;20272;-84
2023/10/30 07:11:18;;;;;;;6.07;0.90;;;;;;;9.61;99.04;100006.56;7396051;19;19922;-84
2023/10/30 07:13:47;;;;;;;3.38;1.00;;;;;;;9.65;99.20;100007.00;7397720;19;20262;-84
2023/10/30 07:16:17;;;;;;;3.63;1.10;;;;;;;9.72;98.68;100006.03;7395468;19;19926;-84
2023/10/30 07:18:46;;;;;;;8.40;1.30;;;;;;;9.79;98.65;100022.25;7395670;19;19952;-84
2023/10/30 07:21:17;;;;;;;7.75;1.83;;;;;;;9.85;98.36;100019.59;7394097;19;19930;-84
2023/10/30 07:23:46;;;;;;;5.72;0.85;;;;;;;9.92;98.18;100017.78;7399411;19;19942;-84
2023/10/30 07:26:15;;;;;;;4.18;1.00;;;;;;;9.98;98.14;100019.72;7398895;19;20260;-84
2023/10/30 07:28:43;;;;;;;4.45;1.17;;;;;;;10.05;98.15;100018.94;7399745;19;19919;-81
2023/10/30 07:31:12;;;;;;;5.82;1.17;;;;;;;10.11;98.17;100023.53;7397083;19;19918;-81
2023/10/30 07:33:41;;;;;;;7.95;1.23;;;;;;;10.18;97.89;100019.09;7397551;19;20803;-81
2023/10/30 07:36:09;;;;;;;6.25;1.05;;;;;;;10.24;97.90;100019.13;7395596;19;19923;-83
2023/10/30 07:38:41;;;;;;;6.72;1.30;;;;;;;10.31;97.49;100011.13;7398005;19;20597;-81
2023/10/30 07:41:10;;;;;;;8.75;1.30;;;;;;;10.37;97.49;100026.47;7395286;19;19925;-81
2023/10/30 07:43:39;;;;;;;7.22;1.15;;;;;;;10.42;97.13;100021.34;7393929;19;20484;-81
2023/10/30 07:46:07;;;;;;;9.98;1.70;;;;;;;10.48;96.92;100022.41;7395344;19;19949;-81
2023/10/30 07:48:36;;;;;;;5.10;0.85;;;;;;;10.51;97.13;100030.94;7395347;19;19961;-81
2023/10/30 07:51:05;;;;;;;6.95;1.27;;;;;;;10.55;96.94;100026.81;7393306;19;19922;-84
2023/10/30 07:53:34;;;;;;;6.45;0.90;;;;;;;10.58;96.96;100028.25;7394381;19;19926;-84
2023/10/30 07:56:06;;;;;;;6.00;1.27;;;;;;;10.61;97.02;100034.09;7397431;19;19922;-84
2023/10/30 07:58:35;;;;;;;5.22;1.10;;;;;;;10.62;97.04;100035.75;7397639;19;19914;-84
2023/10/30 08:01:03;;;;;;;3.90;1.10;;;;;;;10.66;96.89;100036.19;7398777;19;19926;-84
2023/10/30 08:03:32;;;;;;;9.82;1.10;;;;;;;10.67;97.00;100040.53;7399851;19;20272;-82
2023/10/30 08:06:02;;;;;;;9.85;1.90;;;;;;;10.70;96.93;100050.94;7398284;19;19922;-82
2023/10/30 08:08:30;;;;;;;5.47;1.23;;;;;;;10.71;96.95;100047.19;7399172;19;19930;-82
2023/10/30 08:10:59;;;;;;;4.57;1.02;;;;;;;10.75;96.74;100045.78;7399557;19;19918;-82
2023/10/30 08:13:31;;;;;;;7.80;0.90;;;;;;;10.77;96.39;100046.41;7396707;19;19918;-82
2023/10/30 08:15:59;;;;;;;6.53;1.27;;;;;;;10.80;96.56;100046.84;7393959;19;19940;-83
2023/10/30 08:18:28;;;;;;;5.90;1.02;;;;;;;10.84;96.20;100052.66;7393644;19;19949;-82
2023/10/30 08:20:56;;;;;;;7.85;1.25;;;;;;;10.86;96.31;100050.63;7396661;19;19950;-82
2023/10/30 08:23:25;;;;;;;8.70;0.90;;;;;;;10.89;96.35;100045.66;7396323;19;19918;-83
2023/10/30 08:25:54;;;;;;;7.40;1.23;;;;;;;10.93;96.06;100041.53;7394942;19;20015;-81
2023/10/30 08:28:22;;;;;;;10.48;1.73;;;;;;;10.98;95.75;100054.41;7387456;19;19922;-81
2023/10/30 08:30:53;;;;;;;6.25;1.13;;;;;;;11.02;95.86;100063.75;7392869;19;19946;-80
2023/10/30 08:33:22;;;;;;;5.68;1.10;;;;;;;11.07;95.24;100068.56;7390434;19;19922;-82
2023/10/30 08:35:51;;;;;;;6.60;1.10;;;;;;;11.10;95.04;100062.75;7388145;19;19977;-81
2023/10/30 08:38:20;;;;;;;8.73;1.30;;;;;;;11.13;95.00;100067.78;7394195;19;20038;-82
2023/10/30 08:40:49;;;;;;;6.25;1.20;;;;;;;11.17;95.30;100069.03;7398549;19;19934;-81
2023/10/30 08:43:17;;;;;;;7.35;1.30;;;;;;;11.21;95.06;100076.53;7401658;19;19919;-81
2023/10/30 08:45:46;;;;;;;8.57;1.23;;;;;;;11.26;94.50;100084.00;7399417;19;19918;-81
2023/10/30 08:48:17;;;;;;;6.70;1.00;;;;;;;11.28;94.24;100074.66;7389748;19;19944;-82
2023/10/30 08:50:46;;;;;;;3.60;0.98;;;;;;;11.31;94.33;100076.13;7378979;19;19962;-80
2023/10/30 08:53:15;;;;;;;7.65;1.27;;;;;;;11.35;94.21;100082.78;7393082;19;19923;-80
2023/10/30 08:55:44;;;;;;;7.07;1.10;;;;;;;11.37;94.24;100084.25;7389174;19;19933;-80
2023/10/30 08:58:12;;;;;;;2.83;1.05;;;;;;;11.42;94.00;100080.13;7385567;19;20370;-81
2023/10/30 09:00:42;;;;;;;6.55;1.25;;;;;;;11.45;94.04;100095.88;7397988;19;19934;-80
2023/10/30 09:03:10;;;;;;;6.43;1.20;;;;;;;11.49;93.94;100100.69;7398365;19;19922;-81
2023/10/30 09:05:42;;;;;;;7.30;1.13;;;;;;;11.53;93.39;100085.75;7390386;19;19938;-81
2023/10/30 09:08:12;;;;;;;9.55;1.35;;;;;;;11.61;93.84;100092.81;7377275;19;19927;-79
2023/10/30 09:10:40;;;;;;;8.90;1.83;;;;;;;11.66;93.28;100091.19;7382480;19;20351;-84
2023/10/30 09:13:09;;;;;;;7.38;1.23;;;;;;;11.69;92.62;100085.38;7375800;19;19925;-81
2023/10/30 09:15:37;;;;;;;9.10;1.30;;;;;;;11.76;92.06;100091.69;7388500;19;20293;-83
2023/10/30 09:18:06;;;;;;;6.07;1.67;;;;;;;11.82;92.06;100090.84;7398831;19;19962;-84
2023/10/30 09:20:35;;;;;;;8.18;1.52;;;;;;;11.90;91.91;100091.72;7371370;19;19928;-85
2023/10/30 09:23:06;;;;;;;6.60;1.20;;;;;;;11.94;91.37;100088.41;7356990;19;19930;-84
2023/10/30 09:25:35;;;;;;;10.55;1.65;;;;;;;12.02;90.99;100084.66;7377973;19;19926;-84
2023/10/30 09:28:04;;;;;;;9.05;1.13;;;;;;;12.08;90.64;100081.97;7382896;19;19932;-76
2023/10/30 09:30:33;;;;;;;6.55;1.02;;;;;;;12.16;90.63;100080.97;7378558;19;19922;-88
2023/10/30 09:33:01;;;;;;;3.95;1.00;;;;;;;12.24;90.08;100087.00;7383409;19;19933;-88
2023/10/30 09:35:32;;;;;;;8.10;1.52;;;;;;;12.31;90.53;100078.03;7397670;19;19918;-88
2023/10/30 09:38:00;;;;;;;10.60;1.40;;;;;;;12.36;89.45;100097.16;7396467;19;19917;-88
2023/10/30 09:40:32;;;;;;;7.57;1.63;;;;;;;12.42;89.93;100086.38;7397930;19;19972;-87
2023/10/30 09:43:01;;;;;;;6.00;0.95;;;;;;;12.48;89.52;100080.13;7396293;19;20320;-86
2023/10/30 09:45:30;;;;;;;4.65;0.95;;;;;;;12.58;88.80;100098.63;7400369;19;19918;-86
2023/10/30 09:48:00;;;;;;;5.97;1.20;;;;;;;12.61;88.33;100088.22;7400693;19;19922;-87
2023/10/30 09:50:28;;;;;;;4.05;1.00;;;;;;;12.67;88.32;100068.47;7402438;19;19930;-89
2023/10/30 09:52:58;;;;;;;6.70;2.55;;;;;;;12.73;87.97;100074.88;7405590;19;19911;-88
2023/10/30 09:55:27;;;;;;;10.65;1.30;;;;;;;12.77;87.60;100086.13;7402285;19;19922;-87
2023/10/30 09:57:59;;;;;;;9.30;1.40;;;;;;;12.80;87.50;100075.72;7404244;19;20586;-87
2023/10/30 10:00:28;;;;;;;9.15;1.20;;;;;;;12.81;87.44;100074.69;7402431;19;19946;-87
2023/10/30 10:02:57;;;;;;;8.20;0.90;;;;;;;12.84;88.31;100068.03;7400313;19;19959;-87
2023/10/30 10:05:26;;;;;;;3.05;0.95;;;;;;;12.84;87.75;100078.84;7400820;19;19919;-85
2023/10/30 10:07:54;;;;;;;5.85;0.63;;;;;;;12.84;87.53;100068.03;7399847;19;19939;-87
2023/10/30 10:10:24;;;;;;;13.02;1.67;;;;;;;12.83;87.57;100085.28;7402460;19;19925;-88
2023/10/30 10:12:53;;;;;;;8.35;1.10;;;;;;;12.84;87.59;100081.53;7399444;19;20612;-87
2023/10/30 10:15:26;;;;;;;8.05;1.63;;;;;;;12.83;86.63;100082.56;7401228;19;19986;-85
2023/10/30 10:17:55;;;;;;;6.68;1.10;;;;;;;12.72;87.37;100075.94;7400196;19;20375;-86
2023/10/30 10:20:23;;;;;;;6.50;1.17;;;;;;;12.68;87.59;100069.31;7393363;19;20370;-86
2023/10/30 10:22:53;;;;;;;5.57;0.95;;;;;;;12.68;87.99;100083.63;7397410;19;19930;-88
2023/10/30 10:25:21;;;;;;;6.75;1.30;;;;;;;12.68;88.61;100080.13;7400123;19;19927;-86
2023/10/30 10:27:50;;;;;;;5.47;1.15;;;;;;;12.65;87.81;100089.47;7401839;19;19915;-87
2023/10/30 10:30:28;;;;;;;6.07;1.33;;;;;;;12.64;88.02;100087.00;7401150;19;19939;-84
2023/10/30 10:32:59;;;;;;;6.85;1.02;;;;;;;12.61;88.58;100080.09;7399263;19;19954;-86
2023/10/30 10:35:28;;;;;;;5.47;1.38;;;;;;;12.59;88.77;100078.66;7397304;19;19930;-86
2023/10/30 10:38:13;;;;;;;3.75;1.15;;;;;;;12.55;88.74;100070.16;7403518;19;19918;-85
2023/10/30 10:40:43;;;;;;;8.00;1.35;;;;;;;12.61;88.78;100074.72;7403480;19;19918;-86
2023/10/30 10:43:12;;;;;;;6.22;1.05;;;;;;;12.65;88.77;100081.34;7401446;19;19918;-86
2023/10/30 10:45:45;;;;;;;7.50;1.25;;;;;;;12.73;88.45;100069.47;7403261;19;19938;-86
2023/10/30 10:48:14;;;;;;;6.22;1.10;;;;;;;12.83;88.22;100075.28;7408255;19;19929;-85
2023/10/30 10:50:42;;;;;;;8.10;1.15;;;;;;;12.99;87.70;100074.00;7410933;19;20356;-85
2023/10/30 10:53:12;;;;;;;6.85;0.90;;;;;;;13.15;87.46;100081.72;7408518;19;19918;-85
2023/10/30 10:55:47;;;;;;;7.57;1.17;;;;;;;13.15;87.02;100079.84;7387285;19;19926;-86
2023/10/30 10:58:18;;;;;;;4.55;0.98;;;;;;;13.19;87.04;100074.81;7372879;19;19926;-86
2023/10/30 11:00:53;;;;;;;10.40;1.35;;;;;;;13.16;86.09;100083.34;7398221;19;19926;-87
2023/10/30 11:03:23;;;;;;;7.00;1.02;;;;;;;13.17;87.05;100082.31;7400516;19;19919;-86
2023/10/30 11:05:55;;;;;;;9.60;1.30;;;;;;;13.26;86.41;100077.50;7394589;19;19938;-86
2023/10/30 11:08:35;;;;;;;2.78;0.98;;;;;;;13.28;85.81;100070.84;7397719;19;19954;-87
2023/10/30 11:11:14;;;;;;;10.20;1.63;;;;;;;13.42;86.07;100066.19;7398016;19;19918;-83
2023/10/30 11:13:53;;;;;;;7.40;1.10;;;;;;;13.54;85.61;100070.72;7393473;19;19926;-83
2023/10/30 11:16:28;;;;;;;6.53;0.82;;;;;;;13.58;85.02;100074.66;7396918;19;19930;-84
2023/10/30 11:19:00;;;;;;;7.03;1.08;;;;;;;13.59;84.99;100054.66;7396350;19;19918;-83
2023/10/30 11:21:30;;;;;;;5.55;1.10;;;;;;;13.59;85.08;100056.56;7392019;19;19914;-84
2023/10/30 11:23:59;;;;;;;10.38;1.33;;;;;;;13.56;85.91;100055.09;7398326;19;19926;-85
2023/10/30 11:26:39;;;;;;;8.10;1.27;;;;;;;13.49;84.46;100051.59;7397045;19;19918;-84
2023/10/30 11:29:09;;;;;;;3.65;1.00;;;;;;;13.50;85.30;100041.63;7395490;19;19930;-85
2023/10/30 11:32:00;;;;;;;5.00;1.23;;;;;;;13.47;84.82;100039.31;7396711;19;20294;-85
2023/10/30 11:34:33;;;;;;;5.30;1.63;;;;;;;13.47;85.74;100042.03;7399557;19;19918;-85
2023/10/30 11:37:07;;;;;;;7.53;1.25;;;;;;;13.40;84.92;100041.25;7398949;19;19922;-86
2023/10/30 11:39:38;;;;;;;4.78;1.10;;;;;;;13.37;85.45;100034.41;7373675;19;19915;-87
2023/10/30 11:42:32;;;;;;;5.60;1.10;;;;;;;13.33;84.81;100026.91;7397419;19;19934;-85
2023/10/30 11:45:21;;;;;;;5.20;1.10;;;;;;;13.39;85.59;100026.03;7395936;19;20350;-86